1951 03W:IRIS (1951119N06145)


On this page: IBTrACS data - Map and Plots - Positions - Intensities - Original source data

Summary

Start Apr 28
End May 14
Basin WP
LMI 156 kt
Sources jtwc_wp
tokyo
cma
td9636
td9635
ds824_wp
In WMO? Yes
Previous storm 1951 02W (WP)
Previous in basin 1951 02W (WP)
Concurrent storms 1951 03W (WP)
1951 04W (WP)
1951 MISSING (WP)
Next in basin 1951 04W (WP)
Next storm 1951 04W (WP)

top of page IBTrACS Data: File Access

No storm imagery available

top of page Plots:

Map of storm track will not appear if FTP is down
Time series of cyclone Maximum Sustained Wind will not appear if FTP is down
Time series of cyclone Minimum Central Pressure will not appear if FTP is down

top of page Track Data:Position

jtwc_wp tokyo cma td9636 td9635 ds824_wp
Date Lat Lon Lat Lon Lat Lon Lat Lon Lat Lon Lat Lon
1951-04-28 12:00:00 6.3 144.9 6.3 144.9
1951-04-28 18:00:00 6.3 144.5 6.3 144.5
1951-04-29 00:00:00 6.5 144.0 6.4 144.0
1951-04-29 06:00:00 6.6 143.5 6.6 143.5
1951-04-29 12:00:00 7.3 142.8 7.0 142.9 7.0 142.9 7.3 142.8 7.3 142.8 7.3 142.8
1951-04-29 18:00:00 7.4 142.4 7.6 142.4 7.6 142.4 7.5 142.3 7.4 142.4 7.4 142.4
1951-04-30 00:00:00 7.8 141.8 8.1 141.7 8.0 141.7 7.8 141.8 7.8 141.8 7.8 141.8
1951-04-30 06:00:00 8.2 141.1 8.1 140.7 8.2 140.7 8.1 141.1 8.2 141.1 8.2 141.1
1951-04-30 12:00:00 8.5 140.2 8.1 139.7 8.6 139.8 8.5 140.2 8.5 140.2 8.5 140.2
1951-04-30 18:00:00 8.8 139.4 8.5 138.7 8.8 139.0 8.8 139.0 8.8 139.4 8.8 139.4
1951-05-01 00:00:00 9.0 137.8 8.9 137.8 8.9 137.8 9.0 137.8 9.0 137.8 9.0 137.8
1951-05-01 06:00:00 9.0 136.8 9.0 136.8 9.0 137.0 9.1 136.7 9.0 136.8 9.0 136.8
1951-05-01 12:00:00 9.2 135.8 9.2 135.8 9.1 136.2 9.2 135.8 9.2 135.8 9.2 135.8
1951-05-01 18:00:00 9.7 134.8 9.6 135.1 9.3 135.4 9.5 135.1 9.7 134.8 9.7 134.8
1951-05-02 00:00:00 10.0 134.5 10.2 134.4 9.4 134.5 10.0 134.5 10.0 134.5 10.0 134.5
1951-05-02 06:00:00 10.5 134.1 10.5 134.1 9.6 133.8 10.5 134.0 10.5 134.1 10.5 134.1
1951-05-02 12:00:00 11.0 133.5 10.8 133.6 9.7 132.8 11.0 133.5 11.0 133.5 11.0 133.5
1951-05-02 18:00:00 11.2 133.2 11.0 132.9 9.9 131.9 11.2 132.9 11.2 133.2 11.2 133.2
1951-05-03 00:00:00 11.2 132.2 11.0 132.2 10.0 131.0 11.2 132.2 11.2 132.2 11.2 132.2
1951-05-03 06:00:00 11.0 131.9 10.9 131.9 10.2 130.4 11.0 131.7 11.0 131.9 11.0 131.9
1951-05-03 12:00:00 11.0 131.2 10.8 131.2 10.4 129.6 11.0 131.2 11.0 131.2 11.0 131.2
1951-05-03 18:00:00 11.3 130.7 11.4 130.4 10.6 128.8 11.5 130.4 11.3 130.7 11.3 130.7
1951-05-04 00:00:00 12.0 129.4 12.2 129.3 10.8 128.0 12.0 129.4 12.0 129.4 12.0 129.4
1951-05-04 06:00:00 12.1 127.8 11.9 127.8 10.9 127.2 12.1 128.0 12.1 127.8 12.1 127.8
1951-05-04 12:00:00 12.0 126.6 11.5 126.8 11.2 126.3 12.0 126.6 12.0 126.6 12.0 126.6
jtwc_wp tokyo cma td9636 td9635 ds824_wp
1951-05-04 18:00:00 12.1 125.4 11.5 125.6 11.5 125.4 12.1 125.6 12.1 125.4 12.1 125.4
1951-05-05 00:00:00 12.2 124.7 11.9 124.8 12.0 124.7 12.2 124.7 12.2 124.7 12.2 124.7
1951-05-05 06:00:00 12.3 123.8 12.5 124.0 12.5 124.0 12.3 123.9 12.3 123.8 12.3 123.8
1951-05-05 12:00:00 12.6 123.1 13.0 123.4 13.0 123.3 12.6 123.1 12.6 123.1 12.6 123.1
1951-05-05 18:00:00 13.1 122.0 13.6 122.7 13.5 122.6 13.0 122.1 13.1 122.0 13.1 122.0
1951-05-06 00:00:00 13.6 121.2 14.0 121.7 14.0 121.6 13.6 121.2 13.6 121.2 13.6 121.2
1951-05-06 06:00:00 14.3 120.4 14.3 120.6 14.3 120.7 14.2 120.5 14.3 120.4 14.3 120.4
1951-05-06 12:00:00 14.8 119.8 14.7 119.3 14.7 119.7 14.8 119.8 14.8 119.8 14.8 119.8
1951-05-06 18:00:00 15.2 118.9 15.3 118.4 15.3 118.4 15.5 118.7 15.2 118.9 15.2 118.9
1951-05-07 00:00:00 16.3 117.8 16.2 117.8 16.2 118.1 16.3 117.8 16.3 117.8 16.3 117.8
1951-05-07 06:00:00 17.2 117.9 17.2 118.0 17.2 118.0 17.2 117.8 17.2 117.9 17.2 117.9
1951-05-07 12:00:00 18.2 118.2 18.3 118.3 18.3 118.1 18.2 118.2 18.2 118.2 18.2 118.2
1951-05-07 18:00:00 19.1 118.6 19.1 118.7 19.1 118.6 19.1 118.6 19.1 118.6 19.1 118.6
1951-05-08 00:00:00 20.0 119.3 19.9 119.3 19.9 119.3 20.0 119.3 20.0 119.3 20.0 119.3
1951-05-08 06:00:00 21.0 120.3 21.0 120.3 21.0 120.3 21.0 120.2 21.0 120.3 21.0 120.3
1951-05-08 12:00:00 22.0 121.5 22.1 121.9 22.1 121.9 22.0 121.5 22.0 121.5 22.0 121.5
1951-05-08 18:00:00 23.0 122.8 23.2 123.6 23.2 123.6 23.1 123.1 23.0 122.8 23.0 122.8
1951-05-09 00:00:00 24.1 125.3 24.0 125.3 24.0 125.4 24.1 125.3 24.1 125.3 24.1 125.3
1951-05-09 06:00:00 25.0 128.0 25.0 128.1 25.0 128.1 25.1 128.1 25.0 128.0 25.0 128.0
1951-05-09 12:00:00 26.0 131.0 26.1 130.7 26.1 130.8 26.0 131.0 26.0 131.0 26.0 131.0
1951-05-09 18:00:00 26.6 134.0 26.7 133.3 26.7 133.3 26.6 133.5 26.6 134.0 26.6 134.0
1951-05-10 00:00:00 27.0 136.0 27.0 136.0 27.0 136.0 27.0 136.0 27.0 136.0 27.0 136.0
1951-05-10 06:00:00 27.6 138.5 27.7 139.9 27.5 138.1 27.7 138.5 27.6 138.5 27.6 138.5
1951-05-10 12:00:00 28.2 141.1 27.7 142.4 27.8 140.0 28.2 141.1 28.2 141.1 28.2 141.1
jtwc_wp tokyo cma td9636 td9635 ds824_wp
1951-05-10 18:00:00 28.7 143.8 27.5 144.5 27.9 142.5 28.1 144.3 28.7 143.8 28.7 143.8
1951-05-11 00:00:00 27.8 146.5 27.4 145.8 28.0 144.0 27.8 146.5 27.8 146.5 27.8 146.5
1951-05-11 06:00:00 26.9 145.8 28.2 143.7 27.7 144.6 27.3 146.4 26.9 145.8 26.9 145.8
1951-05-11 12:00:00 27.0 145.2 28.0 143.0 27.1 144.4 27.0 145.2 27.0 145.2 27.0 145.2
1951-05-11 18:00:00 27.2 144.5 27.7 142.2 27.0 143.5 27.2 144.6 27.2 144.5 27.2 144.5
1951-05-12 00:00:00 27.8 143.9 28.0 141.9 27.1 142.2 27.8 143.9 27.8 143.9 27.8 143.9
1951-05-12 06:00:00 28.4 143.0 28.5 141.7 28.0 141.7 28.4 143.1 28.4 143.0 28.4 143.0
1951-05-12 12:00:00 29.0 142.3 29.0 141.8 29.0 141.8 29.0 142.3 29.0 142.3 29.0 142.3
1951-05-12 18:00:00 30.0 142.0 30.0 142.0 30.0 142.0 30.0 142.0 30.0 142.0
1951-05-13 00:00:00 31.1 143.0 31.0 143.0
1951-05-13 06:00:00 31.3 144.2 31.4 144.2
1951-05-13 12:00:00 31.1 146.0 31.4 146.1
1951-05-13 18:00:00 31.6 148.4 31.5 148.1
1951-05-14 00:00:00 32.0 150.0 31.9 150.0
1951-05-14 06:00:00 34.0 154.0 33.0 154.0
1951-05-14 12:00:00 34.8 157.0 34.8 157.0
1951-05-14 18:00:00 37.0 160.0 37.0 160.0

top of pageTrack Data:Intensity

jtwc_wp tokyo cma td9636 td9635 ds824_wp
Date Wind Pres Wind Pres Wind Pres Wind Pres Wind Pres Wind Pres
1951-04-28 12:00:00 1008. 19. 1008.
1951-04-28 18:00:00 1006. 19. 1006.
1951-04-29 00:00:00 1003. 29. 1003.
1951-04-29 06:00:00 1003. 29. 1003.
1951-04-29 12:00:00 35. 1002. 29. 1002. 35. 35. 1002. 35.
1951-04-29 18:00:00 45. 1002. 29. 1002. 35. 45. 1001. 45.
1951-04-30 00:00:00 55. 1000. 39. 1000. 55. 55. 1000. 55.
1951-04-30 06:00:00 60. 998. 49. 998. 55. 60. 998. 60.
1951-04-30 12:00:00 65. 996. 49. 996. 65. 65. 996. 65.
1951-04-30 18:00:00 65. 994. 49. 994. 65. 65. 994. 65.
1951-05-01 00:00:00 65. 992. 58. 992. 65. 65. 993. 65.
1951-05-01 06:00:00 70. 987. 58. 987. 65. 70. 988. 70.
1951-05-01 12:00:00 70. 987. 58. 987. 70. 70. 987. 70.
1951-05-01 18:00:00 65. 987. 58. 987. 70. 65. 985. 65.
1951-05-02 00:00:00 60. 986. 58. 986. 60. 60. 984. 60.
1951-05-02 06:00:00 70. 984. 58. 984. 60. 70. 979. 70.
1951-05-02 12:00:00 80. 982. 68. 982. 80. 80. 961. 80.
1951-05-02 18:00:00 90. 970. 78. 970. 80. 90. 943. 90.
1951-05-03 00:00:00 100. 926. 136. 926. 100. 100. 926. 100.
1951-05-03 06:00:00 120. 912. 146. 912. 100. 120. 912. 120.
1951-05-03 12:00:00 130. 909. 156. 909. 130. 130. 910. 130.
1951-05-03 18:00:00 140. 909. 156. 909. 130. 140. 907. 140.
1951-05-04 00:00:00 150. 910. 156. 910. 150. 150. 905. 150.
1951-05-04 06:00:00 140. 909. 156. 910. 150. 140. 910. 140.
1951-05-04 12:00:00 130. 912. 156. 912. 130. 130. 917. 130.
jtwc_wp tokyo cma td9636 td9635 ds824_wp
1951-05-04 18:00:00 110. 919. 146. 919. 130. 110. 924. 110.
1951-05-05 00:00:00 80. 930. 136. 930. 80. 80. 931. 80.
1951-05-05 06:00:00 70. 941. 126. 941. 80. 70. 939. 70.
1951-05-05 12:00:00 65. 952. 107. 952. 65. 65. 946. 65.
1951-05-05 18:00:00 60. 964. 97. 964. 65. 60. 953. 60.
1951-05-06 00:00:00 55. 975. 78. 975. 55. 55. 960. 55.
1951-05-06 06:00:00 50. 984. 68. 984. 55. 50. 968. 50.
1951-05-06 12:00:00 50. 988. 68. 988. 50. 50. 975. 50.
1951-05-06 18:00:00 50. 988. 68. 988. 50. 50. 982. 50.
1951-05-07 00:00:00 65. 988. 68. 988. 65. 65. 989. 65.
1951-05-07 06:00:00 65. 986. 68. 986. 65. 65. 985. 65.
1951-05-07 12:00:00 65. 981. 68. 981. 65. 65. 982. 65.
1951-05-07 18:00:00 70. 978. 68. 978. 65. 70. 978. 70.
1951-05-08 00:00:00 75. 975. 78. 975. 75. 75. 975. 75.
1951-05-08 06:00:00 70. 974. 78. 974. 75. 70. 974. 70.
1951-05-08 12:00:00 75. 972. 78. 972. 75. 75. 976. 75.
1951-05-08 18:00:00 80. 970. 78. 970. 75. 80. 978. 80.
1951-05-09 00:00:00 85. 970. 78. 970. 85. 85. 980. 85.
1951-05-09 06:00:00 85. 976. 68. 976. 85. 85. 978. 85.
1951-05-09 12:00:00 80. 983. 58. 983. 80. 80. 983. 80.
1951-05-09 18:00:00 80. 990. 49. 990. 80. 80. 988. 80.
1951-05-10 00:00:00 80. 993. 39. 993. 80. 80. 993. 80.
1951-05-10 06:00:00 70. 995. 39. 995. 80. 70. 994. 70.
1951-05-10 12:00:00 70. 995. 39. 995. 70. 70. 996. 70.
jtwc_wp tokyo cma td9636 td9635 ds824_wp
1951-05-10 18:00:00 70. 995. 39. 995. 70. 70. 997. 70.
1951-05-11 00:00:00 70. 995. 39. 995. 70. 70. 998. 70.
1951-05-11 06:00:00 60. 995. 39. 995. 70. 60. 999. 60.
1951-05-11 12:00:00 50. 1000. 29. 1000. 50. 50. 999. 50.
1951-05-11 18:00:00 40. 1000. 29. 1000. 50. 40. 1000. 40.
1951-05-12 00:00:00 35. 1000. 29. 1000. 35. 35. 1001. 35.
1951-05-12 06:00:00 35. 1004. 29. 1000. 35. 35. 1002. 35.
1951-05-12 12:00:00 30. 1000. 29. 1000. 30. 30. 1003. 30.
1951-05-12 18:00:00 30. 1000. 29. 1000. 30. 1004. 30.
1951-05-13 00:00:00 1000. 29. 1000.
1951-05-13 06:00:00 1002. 23. 1002.
1951-05-13 12:00:00 1004. 19. 1004.
1951-05-13 18:00:00 1006. 19. 1006.
1951-05-14 00:00:00 1010. 1006.
1951-05-14 06:00:00 1010. 1006.
1951-05-14 12:00:00 1012. 1008.
1951-05-14 18:00:00 1012. 1008.

top of page Links to source data

Source Source file Format
jtwc_wp bwp031951.txt ATCF
tokyo bst_all.txt:Line=87:IRIS:5104 JMA text table
cma CH1951BST.txt:Storm=3:Iris CMA text table
td9636 cons_worldwide_trop_cyclone_18710101-19891231-003:Line=15553 TD 9636
td9635 typhoons-analogs_19450101-19761231.corrected:Line=697 TD 9635
ds824_wp w_npac.dat:136:03W HURDAT